UNR Ag. Experiment Farm, Sparks, Nevada Weather observations

Data are for 10 minute period ending at time listed.
 Day   Time   Solar   Ave.   Ave.  Ave.  Vector  Max.   Baro.   Total    
  of    of     Rad.   Air    Rel.  Wind   Wind   Wind  Press.  Precip.   
Year   Day            Temp.  Hum.  Speed  Dir.   Gust                    
2026   (PST)  Kw/m2    F      %     mph   deg.    mph    mb.     in.     
-------------------------------------------------------------------------
 129    4:50   0.00   42.5    92    0.0     0     0.0   869.3    0.00 
 129    5:00   0.00   42.7    91    0.0   141     0.5   869.3    0.00 
 129    5:10   0.01   42.5    93    0.2   139     1.1   869.4    0.00 
 129    5:20   0.04   43.8    94    0.8   349     1.4   869.5    0.00 
 129    5:30   0.08   44.5    90    1.1   102     2.6   869.6    0.00 
 129    5:40   0.11   43.4    89    1.6   112     2.8   869.7    0.00 
 129    5:50   0.14   44.9    91    2.0   131     2.9   869.7    0.00 
 129    6:00   0.17   47.2    89    1.0   144     2.5   869.8    0.00 
 129    6:10   0.21   49.3    84    0.1   279     0.9   869.9    0.00 
 129    6:20   0.24   51.6    79    0.0     0     0.0   870.0    0.00 
 129    6:30   0.28   54.2    66    0.8   142     1.8   870.0    0.00 
 129    6:40   0.31   55.7    60    0.9   142     2.8   870.0    0.00 
 129    6:50   0.35   57.5    56    0.9   110     2.1   870.0    0.00 
 129    7:00   0.39   59.3    52    0.2   356     1.1   870.0    0.00 
 129    7:10   0.42   60.1    51    0.4   279     1.1   870.0    0.00 
 129    7:20   0.46   60.7    48    0.6   210     1.9   870.1    0.00 
 129    7:30   0.48   61.5    43    0.1   302     0.8   870.1    0.00 
 129    7:40   0.53   62.2    44    0.9   342     2.8   870.1    0.00 
 129    7:50   0.57   62.9    43    1.0   302     2.5   870.1    0.00 
 129    8:00   0.61   62.8    43    1.0   306     2.1   870.1    0.00 
 129    8:10   0.64   63.7    40    1.0   326     2.3   870.1    0.00 
 129    8:20   0.68   64.9    38    1.1   359     3.1   870.0    0.00 
 129    8:30   0.71   65.7    34    1.2   357     3.3   870.0    0.00 
 129    8:40   0.75   66.2    36    1.4     2     3.8   869.9    0.00 
 129    8:50   0.78   67.2    34    2.2     9     4.1   869.9    0.00 
 129    9:00   0.81   68.4    31    1.6    45     3.9   869.9    0.00 
 129    9:10   0.84   68.8    29    1.6   353     5.1   869.9    0.00 
 129    9:20   0.87   69.2    28    1.8   320     4.7   869.8    0.00 
 129    9:30   0.90   69.5    27    2.8   289     4.6   869.7    0.00 
 129    9:40   0.92   70.1    25    2.4    16     5.0   869.6    0.00 
 129    9:50   0.95   71.3    24    3.9   331     8.9   869.6    0.00 
 129   10:00   0.97   72.0    24    6.3    37    10.5   869.5    0.00 
 129   10:10   0.99   72.0    24    5.1    14    10.0   869.4    0.00 
 129   10:20   1.01   73.3    20    4.5    86     9.7   869.4    0.00 
 129   10:30   1.03   74.1    20    3.0    18     6.8   869.4    0.00 
 129   10:40   1.05   74.1    20    2.9    54     7.4   869.2    0.00 
 129   10:50   1.06   74.4    22    2.7   328     6.2   869.1    0.00 
 129   11:00   1.07   75.2    20    4.6   103     9.9   869.0    0.00 
 129   11:10   1.08   74.7    19    3.9   240    11.9   868.9    0.00 
 129   11:20   1.09   75.8    20    3.5   214     7.4   868.8    0.00 
 129   11:30   1.10   75.5    19    5.5   230    12.2   868.7    0.00 
 129   11:40   1.10   75.6    20    4.8   300    11.0   868.6    0.00 
 129   11:50   1.11   75.4    18    3.8   321     7.8   868.5    0.00 
 129   12:00   1.11   76.3    20    4.0   288     7.8   868.3    0.00 
 129   12:10   1.11   77.1    19    3.7   268     8.3   868.1    0.00 
 129   12:20   1.11   77.2    18    3.8   183     9.3   868.0    0.00 
 129   12:30   1.11   77.8    16    6.1   116    10.8   868.0    0.00 
 129   12:40   1.10   78.2    14    2.7     4     6.4   868.0    0.00 
 129   12:50   1.09   79.1    15    1.9   205     6.9   867.9    0.00 
 129   13:00   1.08   79.0    16    4.5   195    10.9   867.7    0.00 
 129   13:10   1.07   79.3    16    4.4   214     9.9   867.6    0.00 
 129   13:20   1.06   79.4    16    5.6   126    13.3   867.6    0.00 
 129   13:30   1.04   79.9    15    7.4   122    12.4   867.5    0.00 
 129   13:40   1.03   79.9    14    3.3    45     7.8   867.4    0.00 
 129   13:50   1.01   80.0    16    5.2   114    11.0   867.3    0.00 
 129   14:00   0.99   80.1    15    7.7   154    17.4   867.3    0.00 
 129   14:10   0.96   80.0    14    7.0    90    16.4   867.2    0.00 
 129   14:20   0.94   80.8    12    2.1   298     5.6   867.1    0.00 
 129   14:30   0.92   80.7    15    4.2   122     8.9   867.0    0.00 
 129   14:40   0.89   81.3    14    4.5   157     9.7   866.8    0.00 
 129   14:50   0.86   81.3    12    2.5   172     7.5   866.6    0.00 
 129   15:00   0.82   81.7    15    4.6    44     7.6   866.5    0.00 
 129   15:10   0.80   81.2    13    2.3     8     6.7   866.4    0.00 
 129   15:20   0.77   82.1    14    2.1    11     5.9   866.3    0.00 
 129   15:30   0.74   82.2    14    4.6    49    11.7   866.2    0.00 
 129   15:40   0.69   81.2    14    7.2    46    15.3   866.2    0.00 
 129   15:50   0.68   80.8    16    5.0    23     9.8   866.1    0.00 
 129   16:00   0.63   80.5    15    7.3    40    12.5   866.1    0.00 
 129   16:10   0.60   81.4    12    6.2    77     9.9   866.1    0.00 
 129   16:20   0.57   82.1    12    4.1    54     8.5   866.1    0.00 
 129   16:30   0.53   80.6    14    5.8    22    11.1   866.0    0.00 
 129   16:40   0.48   80.3    17    3.9     1     6.9   865.9    0.00 
 129   16:50   0.43   80.7    14    5.3    68     9.9   865.9    0.00 
 129   17:00   0.43   80.9    14    5.5    49     8.6   865.9    0.00 
 129   17:10   0.39   80.5    12    6.0    74    10.2   865.9    0.00 
 129   17:20   0.35   81.3    11    3.1    54     9.6   865.9    0.00 
 129   17:30   0.31   82.2    12    2.8    64     7.6   865.9    0.00 
 129   17:40   0.28   80.0    15    5.6    66     8.9   865.9    0.00 
 129   17:50   0.23   78.7    15    4.6    29     6.5   865.8    0.00 
 129   18:00   0.20   78.5    16    3.1    46     4.9   865.8    0.00 
 129   18:10   0.17   77.2    20    3.2    44     4.5   865.7    0.00 
 129   18:20   0.13   77.2    16    2.6    31     3.6   865.7    0.00 
 129   18:30   0.07   74.7    20    4.0    63     6.0   865.8    0.00 
 129   18:40   0.06   73.4    17    3.9    62     4.8   865.8    0.00 
 129   18:50   0.04   71.7    17    3.4    70     5.1   865.8    0.00 
 129   19:00   0.01   70.8    19    3.7    90     4.9   865.9    0.00 
 129   19:10   0.00   70.0    22    1.8    94     3.6   866.0    0.00 
 129   19:20   0.00   67.4    21    3.8   324     5.3   866.1    0.00 
 129   19:30   0.00   71.4    17    1.3   334     2.7   866.2    0.00 
 129   19:40   0.00   70.7    19    2.9   352     6.2   866.3    0.00 
 129   19:50   0.00   72.3    16    2.8    10     5.3   866.4    0.00 
 129   20:00   0.00   68.2    24    1.2   106     3.0   866.5    0.00 
 129   20:10   0.00   66.2    22    2.7   150     3.8   866.6    0.00 
 129   20:20   0.00   67.9    22    2.9   131     4.8   866.7    0.00 
 129   20:30   0.00   63.1    28    2.6   175     3.7   866.8    0.00 
 129   20:40   0.00   61.0    29    1.2   242     3.6   866.9    0.00 
 129   20:50   0.00   64.7    24    2.8   226     4.6   867.1    0.00 
 129   21:00   0.00   63.2    26    2.3   226     3.1   867.1    0.00 
 129   21:10   0.00   64.0    23    2.1   205     2.9   867.1    0.00 
 129   21:20   0.00   62.9    28    4.0   223     5.4   867.2    0.00 
 129   21:30   0.00   59.6    34    3.5   203     5.1   867.2    0.00 
 129   21:40   0.00   60.9    30    3.3   208     4.6   867.2    0.00 
 129   21:50   0.00   61.9    30    2.6   207     3.8   867.3    0.00 
 129   22:00   0.00   58.2    36    1.6   248     3.6   867.3    0.00 
 129   22:10   0.00   57.3    38    1.1   182     2.8   867.4    0.00 
 129   22:20   0.00   57.2    36    0.4   223     1.5   867.4    0.00 
 129   22:30   0.00   57.2    38    1.8   301     4.0   867.5    0.00 
 129   22:40   0.00   53.7    46    1.6    70     3.8   867.5    0.00 
 129   22:50   0.00   55.0    42    2.2   101     3.3   867.5    0.00 
 129   23:00   0.00   52.3    56    2.3   176     3.2   867.5    0.00 
 129   23:10   0.00   48.3    60    2.5   238     3.3   867.6    0.00 
 129   23:20   0.00   53.4    48    1.7   213     2.4   867.6    0.00 
 129   23:30   0.00   52.5    52    1.8   219     3.2   867.7    0.00 
 129   23:40   0.00   51.0    56    2.9   151     4.1   867.7    0.00 
 129   23:50   0.00   49.3    63    2.6   140     4.3   867.7    0.00 
 130    0:00   0.00   49.3    58    1.8   186     3.6   867.7    0.00 
 130    0:10   0.00   48.4    61    1.3   159     2.0   867.6    0.00 
 130    0:20   0.00   47.0    67    1.4    48     2.9   867.7    0.00 
 130    0:30   0.00   45.8    70    3.6    42     5.4   867.8    0.00 
 130    0:40   0.00   46.9    61    3.7   294     5.0   867.7    0.00 
 130    0:50   0.00   45.9    68    3.9   144     6.5   867.7    0.00 
 130    1:00   0.00   44.9    71    1.3   257     3.5   867.7    0.00 
 130    1:10   0.00   45.8    65    0.9   256     2.1   867.7    0.00 
 130    1:20   0.00   47.2    62    2.7   213     3.7   867.8    0.00 
 130    1:30   0.00   46.1    64    1.9   167     3.6   867.8    0.00 
 130    1:40   0.00   45.6    62    1.3   147     2.5   867.8    0.00 
 130    1:50   0.00   45.5    64    2.1   218     2.7   867.9    0.00 
 130    2:00   0.00   44.5    68    3.1   155     4.7   867.9    0.00 
 130    2:10   0.00   43.6    71    2.6   144     4.3   868.0    0.00 
 130    2:20   0.00   43.1    72    1.7   239     2.6   867.9    0.00 
 130    2:30   0.00   45.6    62    2.0   293     3.3   867.9    0.00 
 130    2:40   0.00   46.4    62    1.0   212     2.1   867.9    0.00 
 130    2:50   0.00   42.1    72    1.3   134     2.7   867.9    0.00 
 130    3:00   0.00   43.5    66    0.7   262     1.7   868.0    0.00 
 130    3:10   0.00   45.8    61    1.9    82     3.1   868.0    0.00 
 130    3:20   0.00   43.0    75    1.2    98     2.7   868.0    0.00 
 130    3:30   0.00   41.1    80    0.3   152     1.5   868.0    0.00 
 130    3:40   0.00   41.7    77    1.3   214     1.8   867.9    0.00 
 130    3:50   0.00   42.6    74    1.2   220     1.5   867.9    0.00 
 130    4:00   0.00   42.7    74    0.1   231     0.8   867.9    0.00 
 130    4:10   0.00   43.0    73    0.0   199     0.6   867.9    0.00 
 130    4:20   0.00   42.7    78    0.6   175     1.4   867.8    0.00 
 130    4:30   0.00   41.4    80    0.9   159     1.5   867.8    0.00 
 130    4:40   0.00   40.9    83    0.1    23     0.8   867.8    0.00 

Return to Sparks, Nevada, UNR Ag Experiment Farm graphs page.


Western Regional Climate Center,wrcc@dri.edu